sensor_id;sensor_type;location;lat;lon;timestamp;pressure;altitude;pressure_sealevel;temperature;humidity
55914;BME280;58179;48.776;9.124;2022-09-21T00:00:33;98134.66;;;6.90;100.00
55914;BME280;58179;48.776;9.124;2022-09-21T00:02:59;98137.50;;;6.89;100.00
55914;BME280;58179;48.776;9.124;2022-09-21T00:05:26;98131.78;;;6.92;100.00
55914;BME280;58179;48.776;9.124;2022-09-21T00:07:53;98130.00;;;6.86;100.00
55914;BME280;58179;48.776;9.124;2022-09-21T00:10:19;98134.09;;;6.82;100.00
55914;BME280;58179;48.776;9.124;2022-09-21T00:12:45;98135.91;;;6.81;100.00
55914;BME280;58179;48.776;9.124;2022-09-21T00:15:14;98131.84;;;6.79;100.00
55914;BME280;58179;48.776;9.124;2022-09-21T00:17:43;98139.53;;;6.80;100.00
55914;BME280;58179;48.776;9.124;2022-09-21T00:20:09;98132.88;;;6.78;100.00
55914;BME280;58179;48.776;9.124;2022-09-21T00:22:36;98128.63;;;6.77;100.00
55914;BME280;58179;48.776;9.124;2022-09-21T00:25:05;98137.94;;;6.73;100.00
55914;BME280;58179;48.776;9.124;2022-09-21T00:27:31;98124.38;;;6.69;100.00
55914;BME280;58179;48.776;9.124;2022-09-21T00:29:58;98134.72;;;6.71;100.00
55914;BME280;58179;48.776;9.124;2022-09-21T00:32:26;98131.50;;;6.69;100.00
55914;BME280;58179;48.776;9.124;2022-09-21T00:34:52;98134.13;;;6.69;100.00
55914;BME280;58179;48.776;9.124;2022-09-21T00:37:18;98135.72;;;6.70;100.00
55914;BME280;58179;48.776;9.124;2022-09-21T00:39:44;98142.03;;;6.69;100.00
55914;BME280;58179;48.776;9.124;2022-09-21T00:42:17;98135.34;;;6.66;100.00
55914;BME280;58179;48.776;9.124;2022-09-21T00:44:43;98139.59;;;6.67;100.00
55914;BME280;58179;48.776;9.124;2022-09-21T00:47:12;98134.91;;;6.69;100.00
55914;BME280;58179;48.776;9.124;2022-09-21T00:49:40;98132.31;;;6.63;100.00
55914;BME280;58179;48.776;9.124;2022-09-21T00:52:07;98134.75;;;6.57;100.00
55914;BME280;58179;48.776;9.124;2022-09-21T00:54:38;98131.31;;;6.57;100.00
55914;BME280;58179;48.776;9.124;2022-09-21T00:57:07;98123.06;;;6.53;100.00
55914;BME280;58179;48.776;9.124;2022-09-21T00:59:36;98130.94;;;6.53;100.00
55914;BME280;58179;48.776;9.124;2022-09-21T01:02:03;98126.25;;;6.55;100.00
55914;BME280;58179;48.776;9.124;2022-09-21T01:04:30;98124.66;;;6.54;100.00
55914;BME280;58179;48.776;9.124;2022-09-21T01:06:59;98128.91;;;6.49;100.00
55914;BME280;58179;48.776;9.124;2022-09-21T01:09:28;98125.09;;;6.45;100.00
55914;BME280;58179;48.776;9.124;2022-09-21T01:12:08;98123.69;;;6.42;100.00
55914;BME280;58179;48.776;9.124;2022-09-21T01:15:22;98128.13;;;6.42;100.00
55914;BME280;58179;48.776;9.124;2022-09-21T01:17:58;98127.31;;;6.41;100.00
55914;BME280;58179;48.776;9.124;2022-09-21T01:21:01;98126.69;;;6.39;100.00
55914;BME280;58179;48.776;9.124;2022-09-21T01:23:57;98135.63;;;6.38;100.00
55914;BME280;58179;48.776;9.124;2022-09-21T01:26:41;98124.31;;;6.38;100.00
55914;BME280;58179;48.776;9.124;2022-09-21T01:29:18;98131.78;;;6.34;100.00
55914;BME280;58179;48.776;9.124;2022-09-21T01:31:50;98136.03;;;6.35;100.00
55914;BME280;58179;48.776;9.124;2022-09-21T01:34:26;98132.41;;;6.30;100.00
55914;BME280;58179;48.776;9.124;2022-09-21T01:36:57;98130.59;;;6.30;100.00
55914;BME280;58179;48.776;9.124;2022-09-21T01:39:26;98137.06;;;6.28;100.00
55914;BME280;58179;48.776;9.124;2022-09-21T01:41:54;98137.47;;;6.25;100.00
55914;BME280;58179;48.776;9.124;2022-09-21T01:44:26;98132.81;;;6.27;100.00
55914;BME280;58179;48.776;9.124;2022-09-21T01:46:53;98138.50;;;6.24;100.00
55914;BME280;58179;48.776;9.124;2022-09-21T01:49:25;98135.66;;;6.18;100.00
55914;BME280;58179;48.776;9.124;2022-09-21T01:51:59;98143.72;;;6.17;100.00
55914;BME280;58179;48.776;9.124;2022-09-21T01:54:33;98139.72;;;6.14;100.00
55914;BME280;58179;48.776;9.124;2022-09-21T01:57:06;98139.91;;;6.13;100.00
55914;BME280;58179;48.776;9.124;2022-09-21T01:59:45;98138.91;;;6.14;100.00
55914;BME280;58179;48.776;9.124;2022-09-21T02:02:18;98134.47;;;6.14;100.00
55914;BME280;58179;48.776;9.124;2022-09-21T02:04:45;98134.66;;;6.06;100.00
55914;BME280;58179;48.776;9.124;2022-09-21T02:07:11;98139.50;;;6.03;100.00
55914;BME280;58179;48.776;9.124;2022-09-21T02:09:37;98141.56;;;6.01;100.00
55914;BME280;58179;48.776;9.124;2022-09-21T02:12:04;98141.31;;;6.02;100.00
55914;BME280;58179;48.776;9.124;2022-09-21T02:14:31;98137.50;;;5.98;100.00
55914;BME280;58179;48.776;9.124;2022-09-21T02:17:11;98135.88;;;5.97;100.00
55914;BME280;58179;48.776;9.124;2022-09-21T02:19:45;98127.59;;;5.94;100.00
55914;BME280;58179;48.776;9.124;2022-09-21T02:22:21;98135.25;;;5.95;100.00
55914;BME280;58179;48.776;9.124;2022-09-21T02:24:58;98135.69;;;5.99;100.00
55914;BME280;58179;48.776;9.124;2022-09-21T02:27:33;98131.25;;;5.93;100.00
55914;BME280;58179;48.776;9.124;2022-09-21T02:30:06;98126.56;;;5.88;100.00
55914;BME280;58179;48.776;9.124;2022-09-21T02:32:42;98129.00;;;5.90;100.00
55914;BME280;58179;48.776;9.124;2022-09-21T02:35:17;98134.63;;;5.87;100.00
55914;BME280;58179;48.776;9.124;2022-09-21T02:37:48;98123.53;;;5.84;100.00
55914;BME280;58179;48.776;9.124;2022-09-21T02:40:24;98119.28;;;5.83;100.00
55914;BME280;58179;48.776;9.124;2022-09-21T02:42:57;98120.50;;;5.81;100.00
55914;BME280;58179;48.776;9.124;2022-09-21T02:45:27;98127.75;;;5.79;100.00
55914;BME280;58179;48.776;9.124;2022-09-21T02:48:00;98130.00;;;5.75;100.00
55914;BME280;58179;48.776;9.124;2022-09-21T02:50:33;98125.13;;;5.72;100.00
55914;BME280;58179;48.776;9.124;2022-09-21T02:53:01;98119.06;;;5.72;100.00
55914;BME280;58179;48.776;9.124;2022-09-21T02:55:29;98124.94;;;5.74;100.00
55914;BME280;58179;48.776;9.124;2022-09-21T02:57:56;98122.50;;;5.79;100.00
55914;BME280;58179;48.776;9.124;2022-09-21T03:00:22;98129.78;;;5.70;100.00
55914;BME280;58179;48.776;9.124;2022-09-21T03:02:48;98121.69;;;5.65;100.00
55914;BME280;58179;48.776;9.124;2022-09-21T03:05:15;98118.47;;;5.63;100.00
55914;BME280;58179;48.776;9.124;2022-09-21T03:07:41;98124.13;;;5.60;100.00
55914;BME280;58179;48.776;9.124;2022-09-21T03:10:08;98124.13;;;5.60;100.00
55914;BME280;58179;48.776;9.124;2022-09-21T03:12:34;98117.88;;;5.61;100.00
55914;BME280;58179;48.776;9.124;2022-09-21T03:15:01;98121.31;;;5.62;100.00
55914;BME280;58179;48.776;9.124;2022-09-21T03:17:27;98119.50;;;5.62;100.00
55914;BME280;58179;48.776;9.124;2022-09-21T03:19:53;98119.69;;;5.61;100.00
55914;BME280;58179;48.776;9.124;2022-09-21T03:22:21;98123.50;;;5.58;100.00
55914;BME280;58179;48.776;9.124;2022-09-21T03:24:47;98124.50;;;5.57;100.00
55914;BME280;58179;48.776;9.124;2022-09-21T03:27:15;98129.19;;;5.55;100.00
55914;BME280;58179;48.776;9.124;2022-09-21T03:29:41;98131.00;;;5.55;100.00
55914;BME280;58179;48.776;9.124;2022-09-21T03:32:07;98130.19;;;5.54;100.00
55914;BME280;58179;48.776;9.124;2022-09-21T03:34:33;98140.69;;;5.54;100.00
55914;BME280;58179;48.776;9.124;2022-09-21T03:36:59;98138.44;;;5.51;100.00
55914;BME280;58179;48.776;9.124;2022-09-21T03:39:26;98138.25;;;5.53;100.00
55914;BME280;58179;48.776;9.124;2022-09-21T03:41:52;98147.56;;;5.49;100.00
55914;BME280;58179;48.776;9.124;2022-09-21T03:44:21;98140.69;;;5.48;100.00
55914;BME280;58179;48.776;9.124;2022-09-21T03:46:47;98144.31;;;5.47;100.00
55914;BME280;58179;48.776;9.124;2022-09-21T03:49:13;98147.94;;;5.45;100.00
55914;BME280;58179;48.776;9.124;2022-09-21T03:51:39;98143.31;;;5.48;100.00
55914;BME280;58179;48.776;9.124;2022-09-21T03:54:05;98138.25;;;5.46;100.00
55914;BME280;58179;48.776;9.124;2022-09-21T03:56:33;98134.63;;;5.47;100.00
55914;BME280;58179;48.776;9.124;2022-09-21T03:58:59;98143.50;;;5.46;100.00
55914;BME280;58179;48.776;9.124;2022-09-21T04:01:25;98136.63;;;5.45;100.00
55914;BME280;58179;48.776;9.124;2022-09-21T04:03:51;98135.19;;;5.42;100.00
55914;BME280;58179;48.776;9.124;2022-09-21T04:06:17;98144.09;;;5.41;100.00
55914;BME280;58179;48.776;9.124;2022-09-21T04:08:43;98141.69;;;5.40;100.00
55914;BME280;58179;48.776;9.124;2022-09-21T04:11:09;98141.06;;;5.38;100.00
55914;BME280;58179;48.776;9.124;2022-09-21T04:13:37;98151.56;;;5.38;100.00
55914;BME280;58179;48.776;9.124;2022-09-21T04:16:04;98150.31;;;5.34;100.00
55914;BME280;58179;48.776;9.124;2022-09-21T04:18:30;98146.69;;;5.35;100.00
55914;BME280;58179;48.776;9.124;2022-09-21T04:20:57;98157.63;;;5.38;100.00
55914;BME280;58179;48.776;9.124;2022-09-21T04:23:22;98150.75;;;5.37;100.00
55914;BME280;58179;48.776;9.124;2022-09-21T04:25:48;98154.56;;;5.35;100.00
55914;BME280;58179;48.776;9.124;2022-09-21T04:28:17;98152.38;;;5.32;100.00
55914;BME280;58179;48.776;9.124;2022-09-21T04:30:44;98152.75;;;5.29;100.00
55914;BME280;58179;48.776;9.124;2022-09-21T04:33:10;98165.25;;;5.27;100.00
55914;BME280;58179;48.776;9.124;2022-09-21T04:35:36;98156.78;;;5.25;100.00
55914;BME280;58179;48.776;9.124;2022-09-21T04:38:03;98157.78;;;5.24;100.00
55914;BME280;58179;48.776;9.124;2022-09-21T04:40:29;98162.22;;;5.23;100.00
55914;BME280;58179;48.776;9.124;2022-09-21T04:42:56;98165.84;;;5.22;100.00
55914;BME280;58179;48.776;9.124;2022-09-21T04:45:23;98167.66;;;5.22;100.00
55914;BME280;58179;48.776;9.124;2022-09-21T04:47:50;98169.69;;;5.20;100.00
55914;BME280;58179;48.776;9.124;2022-09-21T04:50:16;98175.53;;;5.15;100.00
55914;BME280;58179;48.776;9.124;2022-09-21T04:52:42;98169.66;;;5.13;100.00
55914;BME280;58179;48.776;9.124;2022-09-21T04:55:08;98174.91;;;5.13;100.00
55914;BME280;58179;48.776;9.124;2022-09-21T04:57:34;98175.72;;;5.14;100.00
55914;BME280;58179;48.776;9.124;2022-09-21T05:00:01;98176.31;;;5.09;100.00
55914;BME280;58179;48.776;9.124;2022-09-21T05:02:27;98178.75;;;5.11;100.00
55914;BME280;58179;48.776;9.124;2022-09-21T05:04:54;98181.38;;;5.11;100.00
55914;BME280;58179;48.776;9.124;2022-09-21T05:07:20;98182.38;;;5.10;100.00
55914;BME280;58179;48.776;9.124;2022-09-21T05:09:48;98181.94;;;5.06;100.00
55914;BME280;58179;48.776;9.124;2022-09-21T05:12:32;98177.91;;;5.03;100.00
55914;BME280;58179;48.776;9.124;2022-09-21T05:15:02;98183.56;;;5.07;100.00
55914;BME280;58179;48.776;9.124;2022-09-21T05:17:28;98186.38;;;5.05;100.00
55914;BME280;58179;48.776;9.124;2022-09-21T05:19:56;98189.19;;;5.04;100.00
55914;BME280;58179;48.776;9.124;2022-09-21T05:22:22;98190.81;;;5.05;100.00
55914;BME280;58179;48.776;9.124;2022-09-21T05:24:48;98189.19;;;5.04;100.00
55914;BME280;58179;48.776;9.124;2022-09-21T05:27:14;98188.81;;;5.07;100.00
55914;BME280;58179;48.776;9.124;2022-09-21T05:29:41;98185.56;;;5.05;100.00
55914;BME280;58179;48.776;9.124;2022-09-21T05:32:13;98185.78;;;5.03;100.00
55914;BME280;58179;48.776;9.124;2022-09-21T05:34:58;98189.19;;;5.04;100.00
55914;BME280;58179;48.776;9.124;2022-09-21T05:37:46;98184.38;;;5.07;100.00
55914;BME280;58179;48.776;9.124;2022-09-21T05:40:16;98185.38;;;5.06;100.00
55914;BME280;58179;48.776;9.124;2022-09-21T05:42:48;98192.44;;;5.06;100.00
55914;BME280;58179;48.776;9.124;2022-09-21T05:45:16;98192.06;;;5.09;100.00
55914;BME280;58179;48.776;9.124;2022-09-21T05:47:54;98188.63;;;5.09;100.00
55914;BME280;58179;48.776;9.124;2022-09-21T05:50:39;98193.69;;;5.10;100.00
55914;BME280;58179;48.776;9.124;2022-09-21T05:53:38;98194.28;;;5.12;100.00
55914;BME280;58179;48.776;9.124;2022-09-21T05:56:13;98197.72;;;5.13;100.00
55914;BME280;58179;48.776;9.124;2022-09-21T05:58:52;98196.53;;;5.15;100.00
55914;BME280;58179;48.776;9.124;2022-09-21T06:01:35;98200.34;;;5.19;100.00
55914;BME280;58179;48.776;9.124;2022-09-21T06:04:08;98200.59;;;5.24;100.00
55914;BME280;58179;48.776;9.124;2022-09-21T06:06:36;98189.91;;;5.26;100.00
55914;BME280;58179;48.776;9.124;2022-09-21T06:09:02;98200.00;;;5.29;100.00
55914;BME280;58179;48.776;9.124;2022-09-21T06:11:28;98205.88;;;5.31;100.00
55914;BME280;58179;48.776;9.124;2022-09-21T06:13:54;98199.19;;;5.35;100.00
55914;BME280;58179;48.776;9.124;2022-09-21T06:16:20;98199.63;;;5.38;100.00
55914;BME280;58179;48.776;9.124;2022-09-21T06:18:46;98208.72;;;5.42;100.00
55914;BME280;58179;48.776;9.124;2022-09-21T06:21:12;98210.16;;;5.45;100.00
55914;BME280;58179;48.776;9.124;2022-09-21T06:23:39;98210.16;;;5.52;100.00
55914;BME280;58179;48.776;9.124;2022-09-21T06:26:05;98207.97;;;5.55;100.00
55914;BME280;58179;48.776;9.124;2022-09-21T06:28:31;98210.78;;;5.60;100.00
55914;BME280;58179;48.776;9.124;2022-09-21T06:30:57;98207.56;;;5.65;100.00
55914;BME280;58179;48.776;9.124;2022-09-21T06:33:23;98215.66;;;5.70;100.00
55914;BME280;58179;48.776;9.124;2022-09-21T06:35:54;98207.97;;;5.75;100.00
55914;BME280;58179;48.776;9.124;2022-09-21T06:38:20;98212.44;;;5.81;100.00
55914;BME280;58179;48.776;9.124;2022-09-21T06:40:49;98215.72;;;5.90;100.00
55914;BME280;58179;48.776;9.124;2022-09-21T06:43:15;98214.91;;;5.96;100.00
55914;BME280;58179;48.776;9.124;2022-09-21T06:45:41;98215.72;;;6.03;100.00
55914;BME280;58179;48.776;9.124;2022-09-21T06:48:08;98218.34;;;6.09;100.00
55914;BME280;58179;48.776;9.124;2022-09-21T06:50:34;98218.16;;;6.17;100.00
55914;BME280;58179;48.776;9.124;2022-09-21T06:53:01;98215.50;;;6.24;100.00
55914;BME280;58179;48.776;9.124;2022-09-21T06:55:27;98209.03;;;6.33;100.00
55914;BME280;58179;48.776;9.124;2022-09-21T06:57:59;98213.09;;;6.42;100.00
55914;BME280;58179;48.776;9.124;2022-09-21T07:00:26;98215.72;;;6.49;100.00
55914;BME280;58179;48.776;9.124;2022-09-21T07:02:52;98212.47;;;6.53;100.00
55914;BME280;58179;48.776;9.124;2022-09-21T07:05:18;98210.84;;;6.59;100.00
55914;BME280;58179;48.776;9.124;2022-09-21T07:07:44;98213.03;;;6.62;100.00
55914;BME280;58179;48.776;9.124;2022-09-21T07:10:10;98212.25;;;6.68;100.00
55914;BME280;58179;48.776;9.124;2022-09-21T07:12:36;98215.88;;;6.74;100.00
55914;BME280;58179;48.776;9.124;2022-09-21T07:15:05;98216.88;;;6.79;100.00
55914;BME280;58179;48.776;9.124;2022-09-21T07:17:32;98214.22;;;6.86;100.00
55914;BME280;58179;48.776;9.124;2022-09-21T07:19:58;98214.41;;;6.91;100.00
55914;BME280;58179;48.776;9.124;2022-09-21T07:22:25;98217.03;;;6.97;100.00
55914;BME280;58179;48.776;9.124;2022-09-21T07:24:53;98217.81;;;7.05;100.00
55914;BME280;58179;48.776;9.124;2022-09-21T07:27:19;98214.34;;;7.11;100.00
55914;BME280;58179;48.776;9.124;2022-09-21T07:29:45;98217.16;;;7.16;100.00
55914;BME280;58179;48.776;9.124;2022-09-21T07:32:13;98221.00;;;7.20;100.00
55914;BME280;58179;48.776;9.124;2022-09-21T07:34:39;98220.16;;;7.26;100.00
55914;BME280;58179;48.776;9.124;2022-09-21T07:37:05;98221.94;;;7.32;100.00
55914;BME280;58179;48.776;9.124;2022-09-21T07:39:31;98222.94;;;7.37;100.00
55914;BME280;58179;48.776;9.124;2022-09-21T07:41:56;98220.50;;;7.43;100.00
55914;BME280;58179;48.776;9.124;2022-09-21T07:44:25;98228.16;;;7.51;100.00
55914;BME280;58179;48.776;9.124;2022-09-21T07:46:51;98221.03;;;7.58;100.00
55914;BME280;58179;48.776;9.124;2022-09-21T07:49:18;98224.22;;;7.66;100.00
55914;BME280;58179;48.776;9.124;2022-09-21T07:51:44;98224.53;;;7.76;100.00
55914;BME280;58179;48.776;9.124;2022-09-21T07:54:12;98232.19;;;7.85;100.00
55914;BME280;58179;48.776;9.124;2022-09-21T07:56:38;98224.03;;;7.93;100.00
55914;BME280;58179;48.776;9.124;2022-09-21T07:59:04;98227.03;;;8.03;100.00
55914;BME280;58179;48.776;9.124;2022-09-21T08:01:34;98227.34;;;8.13;100.00
55914;BME280;58179;48.776;9.124;2022-09-21T08:04:03;98227.25;;;8.26;100.00
55914;BME280;58179;48.776;9.124;2022-09-21T08:06:33;98232.84;;;8.36;100.00
55914;BME280;58179;48.776;9.124;2022-09-21T08:09:00;98229.34;;;8.42;100.00
55914;BME280;58179;48.776;9.124;2022-09-21T08:11:28;98225.22;;;8.53;100.00
55914;BME280;58179;48.776;9.124;2022-09-21T08:13:58;98231.03;;;8.62;100.00
55914;BME280;58179;48.776;9.124;2022-09-21T08:16:25;98229.06;;;8.75;100.00
55914;BME280;58179;48.776;9.124;2022-09-21T08:18:51;98231.03;;;8.80;100.00
55914;BME280;58179;48.776;9.124;2022-09-21T08:21:18;98237.06;;;8.87;100.00
55914;BME280;58179;48.776;9.124;2022-09-21T08:23:47;98238.38;;;8.96;100.00
55914;BME280;58179;48.776;9.124;2022-09-21T08:26:16;98234.06;;;9.02;100.00
55914;BME280;58179;48.776;9.124;2022-09-21T08:28:47;98235.63;;;9.09;100.00
55914;BME280;58179;48.776;9.124;2022-09-21T08:31:15;98234.72;;;9.15;100.00
55914;BME280;58179;48.776;9.124;2022-09-21T08:33:42;98242.13;;;9.25;100.00
55914;BME280;58179;48.776;9.124;2022-09-21T08:36:08;98232.13;;;9.27;100.00
55914;BME280;58179;48.776;9.124;2022-09-21T08:38:36;98234.94;;;9.32;100.00
55914;BME280;58179;48.776;9.124;2022-09-21T08:41:16;98233.16;;;9.44;100.00
55914;BME280;58179;48.776;9.124;2022-09-21T08:43:44;98232.47;;;9.49;100.00
55914;BME280;58179;48.776;9.124;2022-09-21T08:46:12;98237.47;;;9.57;100.00
55914;BME280;58179;48.776;9.124;2022-09-21T08:48:43;98244.28;;;9.64;100.00
55914;BME280;58179;48.776;9.124;2022-09-21T08:51:16;98239.13;;;9.69;100.00
55914;BME280;58179;48.776;9.124;2022-09-21T08:53:49;98239.25;;;9.75;100.00
55914;BME280;58179;48.776;9.124;2022-09-21T08:56:18;98231.50;;;9.91;100.00
55914;BME280;58179;48.776;9.124;2022-09-21T08:58:45;98226.00;;;10.04;100.00
55914;BME280;58179;48.776;9.124;2022-09-21T09:01:31;98229.00;;;10.08;100.00
55914;BME280;58179;48.776;9.124;2022-09-21T09:04:25;98223.63;;;10.15;100.00
55914;BME280;58179;48.776;9.124;2022-09-21T09:07:06;98226.91;;;10.28;100.00
55914;BME280;58179;48.776;9.124;2022-09-21T09:12:53;98224.72;;;10.37;100.00
55914;BME280;58179;48.776;9.124;2022-09-21T09:15:47;98225.75;;;10.47;100.00
55914;BME280;58179;48.776;9.124;2022-09-21T09:18:26;98219.41;;;10.60;100.00
55914;BME280;58179;48.776;9.124;2022-09-21T09:20:56;98221.63;;;10.63;100.00
55914;BME280;58179;48.776;9.124;2022-09-21T09:23:25;98220.13;;;10.79;100.00
55914;BME280;58179;48.776;9.124;2022-09-21T09:25:58;98221.38;;;10.88;100.00
55914;BME280;58179;48.776;9.124;2022-09-21T09:28:33;98215.94;;;10.95;100.00
55914;BME280;58179;48.776;9.124;2022-09-21T09:31:05;98209.34;;;11.09;100.00
55914;BME280;58179;48.776;9.124;2022-09-21T09:33:46;98215.84;;;10.90;100.00
55914;BME280;58179;48.776;9.124;2022-09-21T09:36:14;98210.44;;;10.96;100.00
55914;BME280;58179;48.776;9.124;2022-09-21T09:38:45;98208.31;;;11.10;100.00
55914;BME280;58179;48.776;9.124;2022-09-21T09:47:55;98207.16;;;11.46;100.00
55914;BME280;58179;48.776;9.124;2022-09-21T09:50:29;98208.25;;;11.61;100.00
55914;BME280;58179;48.776;9.124;2022-09-21T09:53:02;98207.84;;;11.81;100.00
55914;BME280;58179;48.776;9.124;2022-09-21T09:55:35;98202.34;;;11.99;100.00
55914;BME280;58179;48.776;9.124;2022-09-21T09:58:03;98190.38;;;12.14;100.00
55914;BME280;58179;48.776;9.124;2022-09-21T10:00:30;98194.81;;;12.25;100.00
55914;BME280;58179;48.776;9.124;2022-09-21T10:02:58;98186.75;;;12.36;100.00
55914;BME280;58179;48.776;9.124;2022-09-21T10:05:32;98194.78;;;12.41;100.00
55914;BME280;58179;48.776;9.124;2022-09-21T10:07:58;98195.16;;;12.50;100.00
55914;BME280;58179;48.776;9.124;2022-09-21T10:10:34;98178.66;;;12.48;100.00
55914;BME280;58179;48.776;9.124;2022-09-21T10:13:12;98186.97;;;12.52;100.00
55914;BME280;58179;48.776;9.124;2022-09-21T10:15:47;98186.50;;;12.55;100.00
55914;BME280;58179;48.776;9.124;2022-09-21T10:18:19;98186.78;;;12.58;100.00
55914;BME280;58179;48.776;9.124;2022-09-21T10:20:57;98187.50;;;12.70;100.00
55914;BME280;58179;48.776;9.124;2022-09-21T10:23:25;98182.66;;;12.84;100.00
55914;BME280;58179;48.776;9.124;2022-09-21T10:25:58;98180.22;;;12.83;98.94
55914;BME280;58179;48.776;9.124;2022-09-21T10:28:26;98178.25;;;12.95;98.28
55914;BME280;58179;48.776;9.124;2022-09-21T10:31:15;98177.38;;;12.89;92.14
55914;BME280;58179;48.776;9.124;2022-09-21T10:33:51;98189.50;;;13.02;94.00
55914;BME280;58179;48.776;9.124;2022-09-21T10:36:28;98165.59;;;13.02;90.47
55914;BME280;58179;48.776;9.124;2022-09-21T10:38:54;98174.56;;;13.17;91.10
55914;BME280;58179;48.776;9.124;2022-09-21T10:41:20;98166.53;;;13.12;91.64
55914;BME280;58179;48.776;9.124;2022-09-21T10:43:46;98171.28;;;13.10;91.96
55914;BME280;58179;48.776;9.124;2022-09-21T10:46:16;98168.59;;;13.27;93.03
55914;BME280;58179;48.776;9.124;2022-09-21T10:48:56;98166.84;;;13.38;88.56
55914;BME280;58179;48.776;9.124;2022-09-21T10:51:28;98169.22;;;13.39;82.97
55914;BME280;58179;48.776;9.124;2022-09-21T10:53:55;98168.19;;;13.40;85.00
55914;BME280;58179;48.776;9.124;2022-09-21T10:56:22;98167.19;;;13.46;87.07
55914;BME280;58179;48.776;9.124;2022-09-21T10:59:16;98168.34;;;13.55;89.30
55914;BME280;58179;48.776;9.124;2022-09-21T11:01:48;98159.31;;;13.56;90.16
55914;BME280;58179;48.776;9.124;2022-09-21T11:04:21;98163.78;;;13.51;86.71
55914;BME280;58179;48.776;9.124;2022-09-21T11:06:52;98160.31;;;13.50;83.93
55914;BME280;58179;48.776;9.124;2022-09-21T11:09:25;98155.97;;;13.66;86.57
55914;BME280;58179;48.776;9.124;2022-09-21T11:12:00;98158.75;;;13.81;88.72
55914;BME280;58179;48.776;9.124;2022-09-21T11:14:46;98162.22;;;13.82;85.39
55914;BME280;58179;48.776;9.124;2022-09-21T11:17:34;98154.50;;;13.80;76.63
55914;BME280;58179;48.776;9.124;2022-09-21T11:20:12;98147.66;;;13.89;79.56
55914;BME280;58179;48.776;9.124;2022-09-21T11:22:45;98148.03;;;14.03;80.72
55914;BME280;58179;48.776;9.124;2022-09-21T11:25:27;98149.13;;;14.07;80.12
55914;BME280;58179;48.776;9.124;2022-09-21T11:28:05;98146.56;;;14.22;84.38
55914;BME280;58179;48.776;9.124;2022-09-21T11:30:57;98141.94;;;14.40;86.07
55914;BME280;58179;48.776;9.124;2022-09-21T11:33:42;98130.16;;;14.36;83.68
55914;BME280;58179;48.776;9.124;2022-09-21T11:36:23;98129.63;;;14.33;83.27
55914;BME280;58179;48.776;9.124;2022-09-21T11:39:02;98133.34;;;14.32;85.43
55914;BME280;58179;48.776;9.124;2022-09-21T11:41:52;98132.09;;;14.40;86.12
55914;BME280;58179;48.776;9.124;2022-09-21T11:44:53;98125.97;;;14.45;84.96
55914;BME280;58179;48.776;9.124;2022-09-21T11:47:43;98117.97;;;14.40;82.35
55914;BME280;58179;48.776;9.124;2022-09-21T11:50:32;98120.38;;;14.41;83.32
55914;BME280;58179;48.776;9.124;2022-09-21T11:53:20;98118.44;;;14.37;85.70
55914;BME280;58179;48.776;9.124;2022-09-21T11:56:18;98120.75;;;14.23;85.57
55914;BME280;58179;48.776;9.124;2022-09-21T11:58:52;98123.66;;;14.21;87.24
55914;BME280;58179;48.776;9.124;2022-09-21T12:01:44;98115.25;;;14.34;86.75
55914;BME280;58179;48.776;9.124;2022-09-21T12:04:40;98112.41;;;14.46;87.17
55914;BME280;58179;48.776;9.124;2022-09-21T12:07:28;98116.19;;;14.60;84.53
55914;BME280;58179;48.776;9.124;2022-09-21T12:10:25;98104.81;;;14.75;84.66
55914;BME280;58179;48.776;9.124;2022-09-21T12:12:59;98104.25;;;14.68;82.37
55914;BME280;58179;48.776;9.124;2022-09-21T12:15:40;98099.72;;;14.63;79.73
55914;BME280;58179;48.776;9.124;2022-09-21T12:18:13;98091.75;;;14.73;75.54
55914;BME280;58179;48.776;9.124;2022-09-21T12:20:47;98086.81;;;15.13;78.44
55914;BME280;58179;48.776;9.124;2022-09-21T12:23:29;98088.22;;;15.40;77.96
55914;BME280;58179;48.776;9.124;2022-09-21T12:25:57;98093.34;;;15.82;78.91
55914;BME280;58179;48.776;9.124;2022-09-21T12:28:30;98104.28;;;16.11;76.75
55914;BME280;58179;48.776;9.124;2022-09-21T12:31:01;98100.25;;;16.19;77.40
55914;BME280;58179;48.776;9.124;2022-09-21T12:33:34;98096.53;;;15.95;76.46
55914;BME280;58179;48.776;9.124;2022-09-21T12:36:07;98098.16;;;15.70;78.19
55914;BME280;58179;48.776;9.124;2022-09-21T12:38:41;98100.22;;;15.38;79.43
55914;BME280;58179;48.776;9.124;2022-09-21T12:41:15;98091.63;;;15.16;81.65
55914;BME280;58179;48.776;9.124;2022-09-21T12:43:47;98086.00;;;15.12;77.09
55914;BME280;58179;48.776;9.124;2022-09-21T12:46:19;98085.28;;;15.42;80.00
55914;BME280;58179;48.776;9.124;2022-09-21T12:48:46;98082.69;;;15.93;80.56
55914;BME280;58179;48.776;9.124;2022-09-21T12:51:32;98090.06;;;16.41;75.86
55914;BME280;58179;48.776;9.124;2022-09-21T12:54:52;98083.63;;;16.68;73.24
55914;BME280;58179;48.776;9.124;2022-09-21T12:57:52;98081.38;;;17.39;69.44
55914;BME280;58179;48.776;9.124;2022-09-21T13:00:23;98076.94;;;18.50;66.38
55914;BME280;58179;48.776;9.124;2022-09-21T13:02:56;98085.28;;;19.90;65.48
55914;BME280;58179;48.776;9.124;2022-09-21T13:05:45;98076.84;;;20.83;57.38
55914;BME280;58179;48.776;9.124;2022-09-21T13:08:17;98082.56;;;20.82;55.72
55914;BME280;58179;48.776;9.124;2022-09-21T13:10:57;98078.41;;;20.30;56.87
55914;BME280;58179;48.776;9.124;2022-09-21T13:13:30;98081.06;;;19.51;56.23
55914;BME280;58179;48.776;9.124;2022-09-21T13:15:57;98086.78;;;18.83;60.79
55914;BME280;58179;48.776;9.124;2022-09-21T13:18:30;98085.63;;;18.13;64.17
55914;BME280;58179;48.776;9.124;2022-09-21T13:20:59;98080.50;;;17.49;65.33
55914;BME280;58179;48.776;9.124;2022-09-21T13:23:33;98077.03;;;16.99;68.43
55914;BME280;58179;48.776;9.124;2022-09-21T13:26:05;98079.91;;;17.18;73.79
55914;BME280;58179;48.776;9.124;2022-09-21T13:31:55;98065.38;;;19.21;68.86
55914;BME280;58179;48.776;9.124;2022-09-21T13:34:35;98063.75;;;19.76;60.90
55914;BME280;58179;48.776;9.124;2022-09-21T13:37:31;98070.00;;;19.71;60.93